Crane — ZR3519 — position and weather

sailwx.info

Track history (hours):
 
Tides and Currents Weather Stations Pressure Air Temp Water Temp Dewpoint Dewpoint Depression Visibility Wind Speed Wind Dir Waves Ship Positions

Crane

Last reported at 2016-Dec-06 09:31 UTC. Time now 2016-Dec-11 10:05 UTC.
Position S 29°52' E 031°01'.

MMSI: 601085000.

Date/timePositionNaut miles runAvg speedWind from/ knotsBaromVisibWave heightAir tempDewpointWater temp
2016-Dec-06 09:31S 29°52' E 031°01'1 1.3
2016-Dec-06 08:33S 29°53' E 031°00'4 3.9
2016-Dec-06 07:33S 29°52' E 031°04'3 3.3
2016-Dec-06 06:33S 29°52' E 031°08'4 4.1
2016-Dec-06 05:33S 29°52' E 031°03'2 2.2
2016-Dec-06 04:33S 29°52' E 031°01'1 0.0
2016-Dec-05 13:33S 29°52' E 031°02'4 4.5
2016-Dec-05 12:33S 29°53' E 031°07'4 4.4
2016-Dec-05 11:34S 29°52' E 031°02'  
Track history (hours):
 
Tides and Currents Weather Stations Pressure Air Temp Water Temp Dewpoint Dewpoint Depression Visibility Wind Speed Wind Dir Waves Ship Positions

Crane

Last reported at 2016-Dec-06 09:31 UTC. Time now 2016-Dec-11 10:05 UTC.
Position S 29°52' E 031°01'.

MMSI: 601085000.

Date/timePositionNaut miles runAvg speedWind from/ knotsBaromVisibWave heightAir tempDewpointWater temp
2016-Dec-06 09:31S 29°52' E 031°01'1 1.3
2016-Dec-06 08:33S 29°53' E 031°00'4 3.9
2016-Dec-06 07:33S 29°52' E 031°04'3 3.3
2016-Dec-06 06:33S 29°52' E 031°08'4 4.1
2016-Dec-06 05:33S 29°52' E 031°03'2 2.2
2016-Dec-06 04:33S 29°52' E 031°01'1 0.0
2016-Dec-05 13:33S 29°52' E 031°02'4 4.5
2016-Dec-05 12:33S 29°53' E 031°07'4 4.4
2016-Dec-05 11:34S 29°52' E 031°02'  

Dump ship's entire track history